• Join FlightAware (Why Join?)
  • Login
  • US Flag 
09:41AM EDT


 

Airport Tracker/Info


-or-


 

Live Flight TrackerFlight Track Log ✈ N572EC ✈ 19-May-2013 ✈ KSRQ - KOCF

Flight Track Log - Related Links

Times and Time Zones

All times are in EDT time to prevent confusion due to time zone crossing. See the N572EC flight status page for this flight to view local times or setup timezone preferences in your user account.

Time Position Orientation Groundspeed Altitude Reporting Facility
EDT Latitude Longitude Course Direction KTS MPH feet Rate Location/Type
11:42AM 27.4000 -82.5667 270° West 197 227 800  Level Tampa TRACON
11:43AM 27.4000 -82.6167 270° West 201 231 2,700 1,980 Climbing Tampa TRACON
11:45AM 27.4000 -82.7000 270° West 246 283 5,000 1,500 Climbing Tampa TRACON
11:45AM 27.4500 -82.7167 344° North 282 325 5,600 2,520 Climbing Tampa TRACON
11:46AM 27.5167 -82.6667 34° Northeast 267 307 9,600 2,220 Climbing Tampa TRACON
11:47AM 27.5667 -82.6000 50° Northeast 304 350 10,100 180 Climbing Tampa TRACON
11:48AM 27.6333 -82.5167 48° Northeast 345 397 10,000 -60 Descending Tampa TRACON
11:49AM 27.7000 -82.4500 42° Northeast 345 397 10,000  Level Tampa TRACON
11:50AM 27.7500 -82.3667 56° Northeast 333 383 10,000  Level Tampa TRACON
11:51AM 27.8167 -82.3000 41° Northeast 337 388 10,000  Level Tampa TRACON
11:52AM 27.9167 -82.2667 16° North 333 383 10,000  Level Tampa TRACON
11:53AM 28.0000 -82.2667 360° North 334 384 10,000  Level Tampa TRACON
11:54AM 28.1000 -82.2667 360° North 334 384 10,000  Level Tampa TRACON
11:55AM 28.2000 -82.2667 360° North 334 384 10,000  Level Tampa TRACON
11:56AM 28.2833 -82.2667 360° North 334 384 10,000  Level Tampa TRACON
11:57AM 28.3667 -82.2500 10° North 333 383 10,000  Level Tampa TRACON
11:58AM 28.4667 -82.2500 360° North 333 383 10,000  Level Tampa TRACON
12:01PM 28.6575 -82.2750 353° North 288 331 10,000  Level Jacksonville Center
12:02PM 28.7267 -82.2958 345° North 243 280 10,000 -360 Level Jacksonville Center
12:02PM 28.7872 -82.2981 358° North 225 259 9,400 -1,200 Descending Jacksonville Center
12:04PM 28.8539 -82.3000 359° North 235 270 7,700 -1,920 Descending Jacksonville Center
12:05PM 28.9269 -82.3042 357° North 244 281 5,600 -1,980 Descending Jacksonville Center
12:06PM 28.9981 -82.3061 359° North 253 291 3,700 -1,260 Descending Jacksonville Center
12:07PM 29.0606 -82.3083 358° North 230 265 3,100 -600 Descending Jacksonville Center
12:08PM 29.1150 -82.3125 356° North 187 215 2,600 -720 Descending Jacksonville Center
12:09PM 29.1692 -82.3147 358° North 191 220 1,700 -600 Descending Jacksonville Center
12:10PM 29.2192 -82.3050 10° North 171 197 1,400 -240 Descending Jacksonville Center
12:11PM 29.2272 -82.2500 80° East 164 189 1,200 -420 Descending Jacksonville Center
12:12PM 29.2000 -82.2242 140° Southeast 145 167 600 -600 Descending Jacksonville Center